Time;durP1;ratioP1;P1;durP2;ratioP2;P2;SDS_P1;SDS_P2;PMS_P1;PMS_P2;Temp;Humidity;BMP_temperature;BMP_pressure;BME280_temperature;BME280_humidity;BME280_pressure;Samples;Min_cycle;Max_cycle;Signal;HPM_P1;HPM_P2
2021/11/01 00:12:46;;;;;;;33.80;19.80;;;;;;;9.70;91.50;99798.48;713993;1205;114033;-74
2021/11/01 00:27:49;;;;;;;33.23;19.23;;;;;;;9.60;93.03;99794.08;714033;1203;114658;-74
2021/11/01 00:42:51;;;;;;;35.43;20.65;;;;;;;9.40;92.40;99767.12;714481;1177;113041;-73
2021/11/01 00:57:54;;;;;;;41.13;22.78;;;;;;;9.10;93.98;99750.61;714221;1200;113632;-74
2021/11/01 01:12:56;;;;;;;41.48;21.18;;;;;;;8.95;94.81;99729.28;713746;1202;114130;-73
2021/11/01 01:27:58;;;;;;;38.60;21.20;;;;;;;8.75;95.73;99722.38;713841;1205;114037;-73
2021/11/01 01:43:03;;;;;;;48.78;24.53;;;;;;;8.62;96.38;99701.76;713969;1200;113753;-73
2021/11/01 01:58:06;;;;;;;37.85;20.70;;;;;;;8.44;97.21;99688.48;714032;1200;113881;-72
2021/11/01 02:13:19;;;;;;;39.45;21.35;;;;;;;8.22;98.34;99651.20;714018;1178;113510;-73
2021/11/01 02:28:28;;;;;;;39.88;21.30;;;;;;;8.13;98.80;99639.77;713917;1202;114097;-72
2021/11/01 02:43:30;;;;;;;47.03;22.40;;;;;;;8.04;100.00;99622.28;713686;1205;114665;-73
2021/11/01 02:58:33;;;;;;;36.93;20.20;;;;;;;7.91;100.00;99626.94;713809;1202;114194;-72
2021/11/01 03:13:36;;;;;;;37.08;18.78;;;;;;;7.81;100.00;99601.63;714709;1202;115355;-74
2021/11/01 03:28:39;;;;;;;37.87;20.40;;;;;;;7.65;100.00;99578.64;714117;1204;113982;-73
2021/11/01 03:43:58;;;;;;;37.53;20.55;;;;;;;7.57;100.00;99559.38;714984;1189;113634;-74
2021/11/01 03:59:01;;;;;;;34.28;19.83;;;;;;;7.45;100.00;99558.66;714846;1180;114575;-75
2021/11/01 04:14:12;;;;;;;36.50;19.78;;;;;;;7.28;100.00;99537.44;714128;1180;114362;-74
2021/11/01 04:29:15;;;;;;;37.50;22.00;;;;;;;7.14;100.00;99515.16;715181;1178;113757;-74
2021/11/01 04:59:55;;;;;;;50.85;25.43;;;;;;;6.85;100.00;99482.92;713651;1200;114019;-73
2021/11/01 05:30:04;;;;;;;45.43;22.65;;;;;;;6.72;100.00;99483.13;714190;1205;114816;-72
2021/11/01 05:45:06;;;;;;;39.60;22.43;;;;;;;6.69;100.00;99468.60;714228;1188;113792;-73
2021/11/01 06:16:11;;;;;;;42.30;22.60;;;;;;;6.84;100.00;99471.67;709098;1205;113995;-73
2021/11/01 06:31:19;;;;;;;41.00;21.60;;;;;;;7.02;100.00;99474.50;708989;1187;113835;-74
2021/11/01 07:17:17;;;;;;;138.95;52.50;;;;;;;9.33;99.81;99478.11;709010;1209;115377;-74
2021/11/01 09:19:58;;;;;;;26.55;14.90;;;;;;;14.91;67.43;99425.56;709275;1211;115853;-72
2021/11/01 09:50:24;;;;;;;25.95;12.20;;;;;;;16.44;64.28;99412.96;709214;1208;114253;-70
2021/11/01 10:05:26;;;;;;;15.80;10.20;;;;;;;17.10;63.15;99393.11;709486;1209;114176;-72
2021/11/01 10:20:32;;;;;;;23.20;12.10;;;;;;;17.68;60.58;99377.69;710180;1189;114803;-73
2021/11/01 10:35:40;;;;;;;17.47;9.50;;;;;;;17.89;58.70;99374.81;709503;1186;114065;-74
2021/11/01 11:52:15;;;;;;;26.40;16.95;;;;;;;18.69;54.33;99331.35;709229;1209;115781;-72
2021/11/01 12:07:17;;;;;;;30.45;15.25;;;;;;;19.04;54.37;99336.29;709546;1208;115847;-71
2021/11/01 12:22:29;;;;;;;20.20;12.70;;;;;;;19.70;54.75;99336.83;709159;1185;114395;-71
2021/11/01 12:37:36;;;;;;;17.95;11.65;;;;;;;19.84;53.94;99328.78;709214;1187;114445;-72
2021/11/01 13:08:15;;;;;;;15.20;9.70;;;;;;;26.52;47.72;99353.23;709259;1209;114085;-71
2021/11/01 13:23:18;;;;;;;17.35;10.35;;;;;;;27.03;44.63;99350.69;709109;1209;115014;-72
2021/11/01 13:38:31;;;;;;;13.93;10.57;;;;;;;27.03;43.83;99342.62;708984;1212;114820;-73
2021/11/01 13:53:39;;;;;;;13.60;9.17;;;;;;;27.90;43.76;99367.94;709247;1209;114152;-73
2021/11/01 14:11:01;;;;;;;18.35;12.50;;;;;;;25.92;43.77;99342.72;709217;1209;115753;-72
2021/11/01 16:26:35;;;;;;;68.90;43.10;;;;;;;12.23;69.95;99369.02;708740;1187;114057;-75
2021/11/01 16:41:41;;;;;;;58.47;29.63;;;;;;;12.14;71.03;99381.38;709539;1209;114311;-78
2021/11/01 17:27:49;;;;;;;27.85;16.50;;;;;;;11.09;74.40;99379.35;708942;1186;114074;-77
2021/11/01 18:59:52;;;;;;;140.80;53.60;;;;;;;10.20;80.38;99338.66;709455;1209;114060;-73
2021/11/01 21:33:33;;;;;;;39.48;20.80;;;;;;;8.74;90.78;99321.46;708144;1209;114533;-76
2021/11/01 21:48:36;;;;;;;42.45;21.90;;;;;;;8.60;92.33;99304.47;708582;1209;113946;-76
2021/11/01 22:34:15;;;;;;;35.40;19.00;;;;;;;8.32;93.00;99291.38;708778;1209;115268;-76
2021/11/01 23:35:04;;;;;;;34.40;18.80;;;;;;;7.80;96.52;99257.10;708738;1185;113714;-75
2021/11/01 23:50:07;;;;;;;34.90;17.05;;;;;;;7.79;95.68;99243.20;709016;1209;114306;-75
